Felts Mills, New York
Current Conditions -  °F | °C
As of 4:56 PM on Friday 31 Oct 2014 (Local Time) from KART Reporting Station
Overcast Overcast  
Wind Chill: 42°   Ceiling: 6000
Heat Index: 47°   Visibility: 10mi
Dew Point: 33°   Wind: 12mph
Humidity: 59%   Direction: 40°NE
Pressure: 29.98"   Gusts: NA
Location:  44.02°N, 75.76°W
Report Text: KART 312056Z AUTO 04010KT 10SM OVC060 08/01 A2998 RMK AO2 SLP154 60000 T00830006 55000
Loading
Personal Weather Stations






























Interactive Weather Map
Tropical Storm Tracking
New forecast layout! Learn more

10-Day Weather Forecast

Advertisements
Track Severe Weather on mobile